sensor_id;sensor_type;location;lat;lon;timestamp;temperature;humidity
13205;DHT22;6667;52.634;9.226;2023-09-18T00:02:06;18.30;99.90
13205;DHT22;6667;52.634;9.226;2023-09-18T00:04:33;18.20;99.90
13205;DHT22;6667;52.634;9.226;2023-09-18T00:07:00;18.20;99.90
13205;DHT22;6667;52.634;9.226;2023-09-18T00:09:26;18.20;99.90
13205;DHT22;6667;52.634;9.226;2023-09-18T00:11:54;18.20;99.90
13205;DHT22;6667;52.634;9.226;2023-09-18T00:14:21;18.20;99.90
13205;DHT22;6667;52.634;9.226;2023-09-18T00:16:48;18.10;99.90
13205;DHT22;6667;52.634;9.226;2023-09-18T00:19:17;18.10;99.90
13205;DHT22;6667;52.634;9.226;2023-09-18T00:21:44;18.10;99.90
13205;DHT22;6667;52.634;9.226;2023-09-18T00:24:10;18.10;99.90
13205;DHT22;6667;52.634;9.226;2023-09-18T00:26:37;18.00;99.90
13205;DHT22;6667;52.634;9.226;2023-09-18T00:29:05;18.00;99.90
13205;DHT22;6667;52.634;9.226;2023-09-18T00:31:32;17.90;99.90
13205;DHT22;6667;52.634;9.226;2023-09-18T00:33:58;17.90;99.90
13205;DHT22;6667;52.634;9.226;2023-09-18T00:36:25;17.90;99.90
13205;DHT22;6667;52.634;9.226;2023-09-18T00:38:52;17.90;99.90
13205;DHT22;6667;52.634;9.226;2023-09-18T00:41:18;17.80;99.90
13205;DHT22;6667;52.634;9.226;2023-09-18T00:43:45;17.90;99.90
13205;DHT22;6667;52.634;9.226;2023-09-18T00:46:13;17.80;99.90
13205;DHT22;6667;52.634;9.226;2023-09-18T00:48:40;17.80;99.90
13205;DHT22;6667;52.634;9.226;2023-09-18T00:51:08;17.80;99.90
13205;DHT22;6667;52.634;9.226;2023-09-18T00:53:37;17.80;99.90
13205;DHT22;6667;52.634;9.226;2023-09-18T00:56:04;17.80;99.90
13205;DHT22;6667;52.634;9.226;2023-09-18T00:58:31;17.80;99.90
13205;DHT22;6667;52.634;9.226;2023-09-18T01:00:59;17.70;99.90
13205;DHT22;6667;52.634;9.226;2023-09-18T01:03:28;17.80;99.90
13205;DHT22;6667;52.634;9.226;2023-09-18T01:05:54;17.70;99.90
13205;DHT22;6667;52.634;9.226;2023-09-18T01:08:22;17.70;99.90
13205;DHT22;6667;52.634;9.226;2023-09-18T01:10:56;17.70;99.90
13205;DHT22;6667;52.634;9.226;2023-09-18T01:13:29;17.70;99.90
13205;DHT22;6667;52.634;9.226;2023-09-18T01:16:03;17.70;99.90
13205;DHT22;6667;52.634;9.226;2023-09-18T01:18:35;17.70;99.90
13205;DHT22;6667;52.634;9.226;2023-09-18T01:21:02;17.70;99.90
13205;DHT22;6667;52.634;9.226;2023-09-18T01:23:30;17.60;99.90
13205;DHT22;6667;52.634;9.226;2023-09-18T01:25:56;17.60;99.90
13205;DHT22;6667;52.634;9.226;2023-09-18T01:28:23;17.60;99.90
13205;DHT22;6667;52.634;9.226;2023-09-18T01:30:50;17.60;99.90
13205;DHT22;6667;52.634;9.226;2023-09-18T01:33:17;17.60;99.90
13205;DHT22;6667;52.634;9.226;2023-09-18T01:35:45;17.60;99.90
13205;DHT22;6667;52.634;9.226;2023-09-18T01:38:12;17.60;99.90
13205;DHT22;6667;52.634;9.226;2023-09-18T01:40:40;17.50;99.90
13205;DHT22;6667;52.634;9.226;2023-09-18T01:43:08;17.50;99.90
13205;DHT22;6667;52.634;9.226;2023-09-18T01:45:35;17.60;99.90
13205;DHT22;6667;52.634;9.226;2023-09-18T01:48:04;17.50;99.90
13205;DHT22;6667;52.634;9.226;2023-09-18T01:50:31;17.50;99.90
13205;DHT22;6667;52.634;9.226;2023-09-18T01:52:58;17.50;99.90
13205;DHT22;6667;52.634;9.226;2023-09-18T01:55:25;17.50;99.90
13205;DHT22;6667;52.634;9.226;2023-09-18T01:57:55;17.50;99.90
13205;DHT22;6667;52.634;9.226;2023-09-18T02:00:21;17.50;99.90
13205;DHT22;6667;52.634;9.226;2023-09-18T02:02:48;17.50;99.90
13205;DHT22;6667;52.634;9.226;2023-09-18T02:05:15;17.50;99.90
13205;DHT22;6667;52.634;9.226;2023-09-18T02:07:42;17.50;99.90
13205;DHT22;6667;52.634;9.226;2023-09-18T02:10:09;17.40;99.90
13205;DHT22;6667;52.634;9.226;2023-09-18T02:12:38;17.40;99.90
13205;DHT22;6667;52.634;9.226;2023-09-18T02:15:07;17.40;99.90
13205;DHT22;6667;52.634;9.226;2023-09-18T02:17:36;17.50;99.90
13205;DHT22;6667;52.634;9.226;2023-09-18T02:20:03;17.60;99.90
13205;DHT22;6667;52.634;9.226;2023-09-18T02:22:37;17.60;99.90
13205;DHT22;6667;52.634;9.226;2023-09-18T02:25:05;17.70;99.90
13205;DHT22;6667;52.634;9.226;2023-09-18T02:27:32;17.70;99.90
13205;DHT22;6667;52.634;9.226;2023-09-18T02:29:59;17.60;99.90
13205;DHT22;6667;52.634;9.226;2023-09-18T02:32:27;17.70;99.90
13205;DHT22;6667;52.634;9.226;2023-09-18T02:34:54;17.60;99.90
13205;DHT22;6667;52.634;9.226;2023-09-18T02:37:20;17.60;99.90
13205;DHT22;6667;52.634;9.226;2023-09-18T02:39:48;17.50;99.90
13205;DHT22;6667;52.634;9.226;2023-09-18T02:42:14;17.60;99.90
13205;DHT22;6667;52.634;9.226;2023-09-18T02:44:41;17.60;99.90
13205;DHT22;6667;52.634;9.226;2023-09-18T02:47:08;17.70;99.90
13205;DHT22;6667;52.634;9.226;2023-09-18T02:49:36;17.60;99.90
13205;DHT22;6667;52.634;9.226;2023-09-18T02:52:03;17.60;99.90
13205;DHT22;6667;52.634;9.226;2023-09-18T02:54:30;17.60;99.90
13205;DHT22;6667;52.634;9.226;2023-09-18T02:56:56;17.50;99.90
13205;DHT22;6667;52.634;9.226;2023-09-18T02:59:23;17.50;99.90
13205;DHT22;6667;52.634;9.226;2023-09-18T03:01:50;17.50;99.90
13205;DHT22;6667;52.634;9.226;2023-09-18T03:04:17;17.50;99.90
13205;DHT22;6667;52.634;9.226;2023-09-18T03:06:45;17.60;99.90
13205;DHT22;6667;52.634;9.226;2023-09-18T03:09:12;17.60;99.90
13205;DHT22;6667;52.634;9.226;2023-09-18T03:11:38;17.60;99.90
13205;DHT22;6667;52.634;9.226;2023-09-18T03:14:05;17.70;99.90
13205;DHT22;6667;52.634;9.226;2023-09-18T03:16:32;17.70;99.90
13205;DHT22;6667;52.634;9.226;2023-09-18T03:18:59;17.70;99.90
13205;DHT22;6667;52.634;9.226;2023-09-18T03:21:26;17.70;99.90
13205;DHT22;6667;52.634;9.226;2023-09-18T03:23:54;17.80;99.90
13205;DHT22;6667;52.634;9.226;2023-09-18T03:26:20;17.90;99.90
13205;DHT22;6667;52.634;9.226;2023-09-18T03:28:47;17.80;99.90
13205;DHT22;6667;52.634;9.226;2023-09-18T03:31:14;18.00;99.90
13205;DHT22;6667;52.634;9.226;2023-09-18T03:33:40;18.00;99.90
13205;DHT22;6667;52.634;9.226;2023-09-18T03:36:07;18.10;99.90
13205;DHT22;6667;52.634;9.226;2023-09-18T03:38:36;18.20;99.90
13205;DHT22;6667;52.634;9.226;2023-09-18T03:41:04;18.20;99.90
13205;DHT22;6667;52.634;9.226;2023-09-18T03:43:31;18.20;99.90
13205;DHT22;6667;52.634;9.226;2023-09-18T03:46:03;18.30;99.90
13205;DHT22;6667;52.634;9.226;2023-09-18T03:48:30;18.40;99.90
13205;DHT22;6667;52.634;9.226;2023-09-18T03:51:01;18.40;99.90
13205;DHT22;6667;52.634;9.226;2023-09-18T03:53:28;18.40;99.90
13205;DHT22;6667;52.634;9.226;2023-09-18T03:55:55;18.40;99.90
13205;DHT22;6667;52.634;9.226;2023-09-18T03:58:23;18.50;99.90
13205;DHT22;6667;52.634;9.226;2023-09-18T04:00:50;18.50;99.90
13205;DHT22;6667;52.634;9.226;2023-09-18T04:03:16;18.50;99.90
13205;DHT22;6667;52.634;9.226;2023-09-18T04:05:43;18.50;99.90
13205;DHT22;6667;52.634;9.226;2023-09-18T04:08:10;18.50;99.90
13205;DHT22;6667;52.634;9.226;2023-09-18T04:10:38;18.50;99.90
13205;DHT22;6667;52.634;9.226;2023-09-18T04:13:05;18.50;99.90
13205;DHT22;6667;52.634;9.226;2023-09-18T04:15:33;18.50;99.90
13205;DHT22;6667;52.634;9.226;2023-09-18T04:18:03;18.60;99.90
13205;DHT22;6667;52.634;9.226;2023-09-18T04:20:30;18.60;99.90
13205;DHT22;6667;52.634;9.226;2023-09-18T04:23:19;18.70;99.90
13205;DHT22;6667;52.634;9.226;2023-09-18T04:25:47;18.70;99.90
13205;DHT22;6667;52.634;9.226;2023-09-18T04:28:14;18.70;99.90
13205;DHT22;6667;52.634;9.226;2023-09-18T04:30:42;18.80;99.90
13205;DHT22;6667;52.634;9.226;2023-09-18T04:33:09;18.90;99.90
13205;DHT22;6667;52.634;9.226;2023-09-18T04:35:37;19.00;99.90
13205;DHT22;6667;52.634;9.226;2023-09-18T04:38:05;19.00;99.90
13205;DHT22;6667;52.634;9.226;2023-09-18T04:40:32;19.00;99.90
13205;DHT22;6667;52.634;9.226;2023-09-18T04:42:59;19.00;99.90
13205;DHT22;6667;52.634;9.226;2023-09-18T04:45:26;19.00;99.90
13205;DHT22;6667;52.634;9.226;2023-09-18T04:47:55;18.90;99.90
13205;DHT22;6667;52.634;9.226;2023-09-18T04:50:32;18.90;99.90
13205;DHT22;6667;52.634;9.226;2023-09-18T04:53:06;19.00;99.90
13205;DHT22;6667;52.634;9.226;2023-09-18T04:58:41;19.00;99.90
13205;DHT22;6667;52.634;9.226;2023-09-18T05:01:08;19.10;99.90
13205;DHT22;6667;52.634;9.226;2023-09-18T05:03:38;19.10;99.90
13205;DHT22;6667;52.634;9.226;2023-09-18T05:06:05;19.20;99.90
13205;DHT22;6667;52.634;9.226;2023-09-18T05:08:32;19.10;99.90
13205;DHT22;6667;52.634;9.226;2023-09-18T05:10:58;19.10;99.90
13205;DHT22;6667;52.634;9.226;2023-09-18T05:13:26;19.20;99.90
13205;DHT22;6667;52.634;9.226;2023-09-18T05:15:53;19.10;99.90
13205;DHT22;6667;52.634;9.226;2023-09-18T05:18:20;19.20;99.90
13205;DHT22;6667;52.634;9.226;2023-09-18T05:20:48;19.20;99.90
13205;DHT22;6667;52.634;9.226;2023-09-18T05:23:15;19.30;99.90
13205;DHT22;6667;52.634;9.226;2023-09-18T05:25:43;19.30;99.90
13205;DHT22;6667;52.634;9.226;2023-09-18T05:28:10;19.40;99.90
13205;DHT22;6667;52.634;9.226;2023-09-18T05:30:37;19.40;99.90
13205;DHT22;6667;52.634;9.226;2023-09-18T05:33:05;19.40;99.90
13205;DHT22;6667;52.634;9.226;2023-09-18T05:35:33;19.50;99.90
13205;DHT22;6667;52.634;9.226;2023-09-18T05:38:01;19.60;99.90
13205;DHT22;6667;52.634;9.226;2023-09-18T05:40:28;19.70;99.90
13205;DHT22;6667;52.634;9.226;2023-09-18T05:42:55;19.90;99.90
13205;DHT22;6667;52.634;9.226;2023-09-18T05:45:22;19.90;77.70
13205;DHT22;6667;52.634;9.226;2023-09-18T05:47:50;20.10;52.00
13205;DHT22;6667;52.634;9.226;2023-09-18T05:50:18;20.10;54.10
13205;DHT22;6667;52.634;9.226;2023-09-18T05:52:46;20.00;58.60
13205;DHT22;6667;52.634;9.226;2023-09-18T05:55:15;20.10;56.40
13205;DHT22;6667;52.634;9.226;2023-09-18T05:57:42;20.00;55.00
13205;DHT22;6667;52.634;9.226;2023-09-18T06:00:09;20.00;54.00
13205;DHT22;6667;52.634;9.226;2023-09-18T06:02:38;20.00;57.80
13205;DHT22;6667;52.634;9.226;2023-09-18T06:05:06;20.00;66.60
13205;DHT22;6667;52.634;9.226;2023-09-18T06:07:37;19.90;73.50
13205;DHT22;6667;52.634;9.226;2023-09-18T06:10:04;19.90;75.50
13205;DHT22;6667;52.634;9.226;2023-09-18T06:12:32;19.90;78.10
13205;DHT22;6667;52.634;9.226;2023-09-18T06:14:59;19.90;81.90
13205;DHT22;6667;52.634;9.226;2023-09-18T06:17:26;19.90;82.10
13205;DHT22;6667;52.634;9.226;2023-09-18T06:19:53;20.00;73.60
13205;DHT22;6667;52.634;9.226;2023-09-18T06:22:20;19.90;82.70
13205;DHT22;6667;52.634;9.226;2023-09-18T06:24:47;19.90;89.30
13205;DHT22;6667;52.634;9.226;2023-09-18T06:27:14;19.90;92.10
13205;DHT22;6667;52.634;9.226;2023-09-18T06:29:42;19.90;81.40
13205;DHT22;6667;52.634;9.226;2023-09-18T06:32:09;20.00;86.60
13205;DHT22;6667;52.634;9.226;2023-09-18T06:34:35;20.00;90.70
13205;DHT22;6667;52.634;9.226;2023-09-18T06:37:02;19.90;94.70
13205;DHT22;6667;52.634;9.226;2023-09-18T06:39:31;19.90;93.40
13205;DHT22;6667;52.634;9.226;2023-09-18T06:41:58;19.90;99.90
13205;DHT22;6667;52.634;9.226;2023-09-18T06:44:25;19.90;98.10
13205;DHT22;6667;52.634;9.226;2023-09-18T06:46:53;19.90;99.90
13205;DHT22;6667;52.634;9.226;2023-09-18T06:49:19;19.80;99.90
13205;DHT22;6667;52.634;9.226;2023-09-18T06:51:46;19.80;99.90
13205;DHT22;6667;52.634;9.226;2023-09-18T06:54:13;19.80;99.90
13205;DHT22;6667;52.634;9.226;2023-09-18T06:56:39;19.80;99.90
13205;DHT22;6667;52.634;9.226;2023-09-18T06:59:07;19.80;99.90
13205;DHT22;6667;52.634;9.226;2023-09-18T07:01:33;19.80;99.90
13205;DHT22;6667;52.634;9.226;2023-09-18T07:04:01;19.80;99.90
13205;DHT22;6667;52.634;9.226;2023-09-18T07:06:30;19.80;99.90
13205;DHT22;6667;52.634;9.226;2023-09-18T07:08:56;19.80;99.90
13205;DHT22;6667;52.634;9.226;2023-09-18T07:11:23;19.80;99.90
13205;DHT22;6667;52.634;9.226;2023-09-18T07:13:50;19.80;99.90
13205;DHT22;6667;52.634;9.226;2023-09-18T07:16:16;19.90;99.90
13205;DHT22;6667;52.634;9.226;2023-09-18T07:18:44;19.90;99.90
13205;DHT22;6667;52.634;9.226;2023-09-18T07:21:12;20.00;99.90
13205;DHT22;6667;52.634;9.226;2023-09-18T07:23:39;20.00;99.90
13205;DHT22;6667;52.634;9.226;2023-09-18T07:26:06;20.10;99.90
13205;DHT22;6667;52.634;9.226;2023-09-18T07:28:33;20.20;96.20
13205;DHT22;6667;52.634;9.226;2023-09-18T07:31:05;20.20;93.40
13205;DHT22;6667;52.634;9.226;2023-09-18T07:33:32;20.30;93.40
13205;DHT22;6667;52.634;9.226;2023-09-18T07:35:59;20.30;94.30
13205;DHT22;6667;52.634;9.226;2023-09-18T07:38:27;20.40;78.00
13205;DHT22;6667;52.634;9.226;2023-09-18T07:40:54;20.60;75.10
13205;DHT22;6667;52.634;9.226;2023-09-18T07:43:21;20.80;61.00
13205;DHT22;6667;52.634;9.226;2023-09-18T07:45:49;21.00;58.90
13205;DHT22;6667;52.634;9.226;2023-09-18T07:48:16;21.10;46.40
13205;DHT22;6667;52.634;9.226;2023-09-18T07:50:45;21.20;45.40
13205;DHT22;6667;52.634;9.226;2023-09-18T07:53:14;21.30;38.20
13205;DHT22;6667;52.634;9.226;2023-09-18T07:55:43;21.40;44.10
13205;DHT22;6667;52.634;9.226;2023-09-18T07:58:09;21.60;27.30
13205;DHT22;6667;52.634;9.226;2023-09-18T08:00:37;22.00;26.30
13205;DHT22;6667;52.634;9.226;2023-09-18T08:03:04;22.00;23.00
13205;DHT22;6667;52.634;9.226;2023-09-18T08:05:30;22.00;30.00
13205;DHT22;6667;52.634;9.226;2023-09-18T08:07:57;21.90;28.60
13205;DHT22;6667;52.634;9.226;2023-09-18T08:10:24;21.90;26.30
13205;DHT22;6667;52.634;9.226;2023-09-18T08:12:52;22.00;25.10
13205;DHT22;6667;52.634;9.226;2023-09-18T08:15:19;22.10;23.80
13205;DHT22;6667;52.634;9.226;2023-09-18T08:17:46;22.20;19.90
13205;DHT22;6667;52.634;9.226;2023-09-18T08:20:14;22.40;19.50
13205;DHT22;6667;52.634;9.226;2023-09-18T08:22:41;22.50;14.70
13205;DHT22;6667;52.634;9.226;2023-09-18T08:25:09;22.60;6.20
13205;DHT22;6667;52.634;9.226;2023-09-18T08:27:37;22.70;9.30
13205;DHT22;6667;52.634;9.226;2023-09-18T08:30:08;22.80;4.20
13205;DHT22;6667;52.634;9.226;2023-09-18T08:32:35;22.90;3.30
13205;DHT22;6667;52.634;9.226;2023-09-18T08:35:02;22.90;1.00
13205;DHT22;6667;52.634;9.226;2023-09-18T08:37:29;22.90;1.00
13205;DHT22;6667;52.634;9.226;2023-09-18T08:39:56;22.90;1.00
13205;DHT22;6667;52.634;9.226;2023-09-18T08:42:23;22.90;1.00
13205;DHT22;6667;52.634;9.226;2023-09-18T08:44:51;22.90;1.20
13205;DHT22;6667;52.634;9.226;2023-09-18T08:47:21;22.90;1.00
13205;DHT22;6667;52.634;9.226;2023-09-18T08:49:49;23.00;2.50
13205;DHT22;6667;52.634;9.226;2023-09-18T08:52:18;23.00;1.00
13205;DHT22;6667;52.634;9.226;2023-09-18T08:54:46;23.00;1.00
13205;DHT22;6667;52.634;9.226;2023-09-18T08:57:13;23.00;1.00
13205;DHT22;6667;52.634;9.226;2023-09-18T08:59:40;23.00;1.00
13205;DHT22;6667;52.634;9.226;2023-09-18T09:02:07;23.10;1.00
13205;DHT22;6667;52.634;9.226;2023-09-18T09:04:38;23.10;1.00
13205;DHT22;6667;52.634;9.226;2023-09-18T09:07:05;23.10;1.00
13205;DHT22;6667;52.634;9.226;2023-09-18T09:09:32;23.00;1.00
13205;DHT22;6667;52.634;9.226;2023-09-18T09:11:58;23.00;1.00
13205;DHT22;6667;52.634;9.226;2023-09-18T09:14:25;22.90;1.00
13205;DHT22;6667;52.634;9.226;2023-09-18T09:16:55;22.90;1.00
13205;DHT22;6667;52.634;9.226;2023-09-18T09:19:29;22.90;1.00
13205;DHT22;6667;52.634;9.226;2023-09-18T09:21:58;22.90;1.00
13205;DHT22;6667;52.634;9.226;2023-09-18T09:24:36;22.90;1.00
13205;DHT22;6667;52.634;9.226;2023-09-18T09:27:04;22.90;1.00
13205;DHT22;6667;52.634;9.226;2023-09-18T09:29:30;22.90;1.00
13205;DHT22;6667;52.634;9.226;2023-09-18T09:32:12;22.90;1.00
13205;DHT22;6667;52.634;9.226;2023-09-18T09:34:40;22.90;1.00
13205;DHT22;6667;52.634;9.226;2023-09-18T09:37:08;23.00;1.00
13205;DHT22;6667;52.634;9.226;2023-09-18T09:39:46;23.10;1.00
13205;DHT22;6667;52.634;9.226;2023-09-18T09:42:16;23.00;1.00
13205;DHT22;6667;52.634;9.226;2023-09-18T09:44:44;23.00;1.00
13205;DHT22;6667;52.634;9.226;2023-09-18T09:47:11;23.00;1.00
13205;DHT22;6667;52.634;9.226;2023-09-18T09:49:45;23.00;1.00
13205;DHT22;6667;52.634;9.226;2023-09-18T09:52:19;23.00;1.00
13205;DHT22;6667;52.634;9.226;2023-09-18T09:54:48;22.90;1.00
13205;DHT22;6667;52.634;9.226;2023-09-18T09:57:14;23.00;1.00
13205;DHT22;6667;52.634;9.226;2023-09-18T09:59:41;23.00;1.00
13205;DHT22;6667;52.634;9.226;2023-09-18T10:02:10;23.00;1.00
13205;DHT22;6667;52.634;9.226;2023-09-18T10:04:40;23.10;1.00
13205;DHT22;6667;52.634;9.226;2023-09-18T10:07:09;23.00;1.00
13205;DHT22;6667;52.634;9.226;2023-09-18T10:09:41;23.10;1.00
13205;DHT22;6667;52.634;9.226;2023-09-18T10:12:11;23.10;1.00
13205;DHT22;6667;52.634;9.226;2023-09-18T10:14:39;23.20;1.00
13205;DHT22;6667;52.634;9.226;2023-09-18T10:17:16;23.20;1.00
13205;DHT22;6667;52.634;9.226;2023-09-18T10:19:49;23.20;1.00
13205;DHT22;6667;52.634;9.226;2023-09-18T10:22:24;23.20;1.00
13205;DHT22;6667;52.634;9.226;2023-09-18T10:24:59;23.20;1.00
13205;DHT22;6667;52.634;9.226;2023-09-18T10:27:28;23.20;1.00
13205;DHT22;6667;52.634;9.226;2023-09-18T10:29:57;23.10;1.00
13205;DHT22;6667;52.634;9.226;2023-09-18T10:32:26;23.10;1.00
13205;DHT22;6667;52.634;9.226;2023-09-18T10:34:54;23.10;1.00
13205;DHT22;6667;52.634;9.226;2023-09-18T10:37:21;22.90;1.00
13205;DHT22;6667;52.634;9.226;2023-09-18T10:39:49;23.00;1.00
13205;DHT22;6667;52.634;9.226;2023-09-18T10:42:19;23.00;1.00
13205;DHT22;6667;52.634;9.226;2023-09-18T10:44:48;23.10;1.00
13205;DHT22;6667;52.634;9.226;2023-09-18T10:47:16;23.10;1.00
13205;DHT22;6667;52.634;9.226;2023-09-18T10:49:43;23.00;1.00
13205;DHT22;6667;52.634;9.226;2023-09-18T10:52:11;22.90;1.00
13205;DHT22;6667;52.634;9.226;2023-09-18T10:54:38;22.90;1.00
13205;DHT22;6667;52.634;9.226;2023-09-18T10:57:05;22.90;1.00
13205;DHT22;6667;52.634;9.226;2023-09-18T10:59:43;22.80;1.00
13205;DHT22;6667;52.634;9.226;2023-09-18T11:02:10;22.90;1.00
13205;DHT22;6667;52.634;9.226;2023-09-18T11:04:41;23.20;1.00
13205;DHT22;6667;52.634;9.226;2023-09-18T11:07:07;23.50;1.00
13205;DHT22;6667;52.634;9.226;2023-09-18T11:09:42;23.50;1.00
13205;DHT22;6667;52.634;9.226;2023-09-18T11:12:10;23.80;1.00
13205;DHT22;6667;52.634;9.226;2023-09-18T11:14:47;23.80;1.00
13205;DHT22;6667;52.634;9.226;2023-09-18T11:17:31;23.70;1.00
13205;DHT22;6667;52.634;9.226;2023-09-18T11:20:06;23.80;1.00
13205;DHT22;6667;52.634;9.226;2023-09-18T11:22:39;24.00;1.00
13205;DHT22;6667;52.634;9.226;2023-09-18T11:25:29;24.10;1.00
13205;DHT22;6667;52.634;9.226;2023-09-18T11:27:57;24.20;1.00
13205;DHT22;6667;52.634;9.226;2023-09-18T11:30:25;24.50;1.00
13205;DHT22;6667;52.634;9.226;2023-09-18T11:32:52;24.90;1.00
13205;DHT22;6667;52.634;9.226;2023-09-18T11:35:19;25.00;1.00
13205;DHT22;6667;52.634;9.226;2023-09-18T11:37:47;24.80;1.00
13205;DHT22;6667;52.634;9.226;2023-09-18T11:40:30;24.50;1.00
13205;DHT22;6667;52.634;9.226;2023-09-18T11:43:18;24.20;1.00
13205;DHT22;6667;52.634;9.226;2023-09-18T11:45:50;24.00;1.00
13205;DHT22;6667;52.634;9.226;2023-09-18T11:48:19;24.00;1.00
13205;DHT22;6667;52.634;9.226;2023-09-18T11:50:47;23.80;1.00
13205;DHT22;6667;52.634;9.226;2023-09-18T11:53:16;23.80;1.00
13205;DHT22;6667;52.634;9.226;2023-09-18T11:55:43;23.70;1.00
13205;DHT22;6667;52.634;9.226;2023-09-18T11:58:10;23.70;1.00
13205;DHT22;6667;52.634;9.226;2023-09-18T12:00:37;23.70;1.00
13205;DHT22;6667;52.634;9.226;2023-09-18T12:03:17;23.50;1.00
13205;DHT22;6667;52.634;9.226;2023-09-18T12:06:02;23.60;1.00
13205;DHT22;6667;52.634;9.226;2023-09-18T12:08:31;23.60;1.00
13205;DHT22;6667;52.634;9.226;2023-09-18T12:10:58;23.70;1.00
13205;DHT22;6667;52.634;9.226;2023-09-18T12:13:26;24.10;1.00
13205;DHT22;6667;52.634;9.226;2023-09-18T12:15:56;24.30;1.00
13205;DHT22;6667;52.634;9.226;2023-09-18T12:18:25;24.30;1.00
13205;DHT22;6667;52.634;9.226;2023-09-18T12:20:54;24.30;1.00
13205;DHT22;6667;52.634;9.226;2023-09-18T12:23:24;24.50;1.00
13205;DHT22;6667;52.634;9.226;2023-09-18T12:25:58;24.50;1.00
13205;DHT22;6667;52.634;9.226;2023-09-18T12:28:26;24.30;1.00
13205;DHT22;6667;52.634;9.226;2023-09-18T12:30:54;24.20;1.00
13205;DHT22;6667;52.634;9.226;2023-09-18T12:33:21;24.00;1.00
13205;DHT22;6667;52.634;9.226;2023-09-18T12:35:50;24.10;1.00
13205;DHT22;6667;52.634;9.226;2023-09-18T12:38:18;24.10;1.00
13205;DHT22;6667;52.634;9.226;2023-09-18T12:40:50;24.00;1.00
13205;DHT22;6667;52.634;9.226;2023-09-18T12:43:17;24.00;1.00
13205;DHT22;6667;52.634;9.226;2023-09-18T12:45:45;24.00;1.00
13205;DHT22;6667;52.634;9.226;2023-09-18T12:48:13;24.10;1.00
13205;DHT22;6667;52.634;9.226;2023-09-18T12:50:40;24.00;1.00
13205;DHT22;6667;52.634;9.226;2023-09-18T12:53:12;24.00;1.00
13205;DHT22;6667;52.634;9.226;2023-09-18T12:55:39;23.90;1.00
13205;DHT22;6667;52.634;9.226;2023-09-18T12:58:10;23.90;1.00
13205;DHT22;6667;52.634;9.226;2023-09-18T13:00:40;24.00;1.00
13205;DHT22;6667;52.634;9.226;2023-09-18T13:03:12;24.00;1.00
13205;DHT22;6667;52.634;9.226;2023-09-18T13:05:39;24.10;1.00
13205;DHT22;6667;52.634;9.226;2023-09-18T13:08:06;24.10;1.00
13205;DHT22;6667;52.634;9.226;2023-09-18T13:10:46;24.00;1.00
13205;DHT22;6667;52.634;9.226;2023-09-18T13:13:16;23.90;1.00
13205;DHT22;6667;52.634;9.226;2023-09-18T13:15:44;24.00;1.00
13205;DHT22;6667;52.634;9.226;2023-09-18T13:18:11;24.00;1.00
13205;DHT22;6667;52.634;9.226;2023-09-18T13:20:38;23.70;1.00
13205;DHT22;6667;52.634;9.226;2023-09-18T13:23:07;23.70;1.00
13205;DHT22;6667;52.634;9.226;2023-09-18T13:25:35;23.60;1.00
13205;DHT22;6667;52.634;9.226;2023-09-18T13:28:05;23.70;1.00
13205;DHT22;6667;52.634;9.226;2023-09-18T13:30:33;23.70;1.00
13205;DHT22;6667;52.634;9.226;2023-09-18T13:33:05;23.90;1.00
13205;DHT22;6667;52.634;9.226;2023-09-18T13:35:32;24.20;1.00
13205;DHT22;6667;52.634;9.226;2023-09-18T13:37:59;24.40;1.00
13205;DHT22;6667;52.634;9.226;2023-09-18T13:40:26;24.50;1.00
13205;DHT22;6667;52.634;9.226;2023-09-18T13:42:53;24.70;1.00
13205;DHT22;6667;52.634;9.226;2023-09-18T13:45:21;24.70;1.00
13205;DHT22;6667;52.634;9.226;2023-09-18T13:47:48;24.60;1.00
13205;DHT22;6667;52.634;9.226;2023-09-18T13:50:16;24.60;1.00
13205;DHT22;6667;52.634;9.226;2023-09-18T13:52:42;24.50;1.00
13205;DHT22;6667;52.634;9.226;2023-09-18T13:55:09;24.60;1.00
13205;DHT22;6667;52.634;9.226;2023-09-18T13:57:36;24.60;1.00
13205;DHT22;6667;52.634;9.226;2023-09-18T14:00:06;24.50;1.00
13205;DHT22;6667;52.634;9.226;2023-09-18T14:02:35;24.60;1.00
13205;DHT22;6667;52.634;9.226;2023-09-18T14:05:16;24.70;1.00
13205;DHT22;6667;52.634;9.226;2023-09-18T14:07:43;24.90;1.00
13205;DHT22;6667;52.634;9.226;2023-09-18T14:10:10;24.80;1.00
13205;DHT22;6667;52.634;9.226;2023-09-18T14:12:37;24.80;1.00
13205;DHT22;6667;52.634;9.226;2023-09-18T14:15:05;24.70;1.00
13205;DHT22;6667;52.634;9.226;2023-09-18T14:17:32;24.50;1.00
13205;DHT22;6667;52.634;9.226;2023-09-18T14:20:00;24.50;1.00
13205;DHT22;6667;52.634;9.226;2023-09-18T14:22:32;24.40;1.00
13205;DHT22;6667;52.634;9.226;2023-09-18T14:24:58;24.40;1.00
13205;DHT22;6667;52.634;9.226;2023-09-18T14:27:27;24.50;1.00
13205;DHT22;6667;52.634;9.226;2023-09-18T14:29:53;24.60;1.00
13205;DHT22;6667;52.634;9.226;2023-09-18T14:32:20;24.80;1.00
13205;DHT22;6667;52.634;9.226;2023-09-18T14:34:47;24.90;1.00
13205;DHT22;6667;52.634;9.226;2023-09-18T14:37:15;24.90;1.00
13205;DHT22;6667;52.634;9.226;2023-09-18T14:39:42;25.00;1.00
13205;DHT22;6667;52.634;9.226;2023-09-18T14:42:09;24.90;1.00
13205;DHT22;6667;52.634;9.226;2023-09-18T14:44:37;24.90;1.00
13205;DHT22;6667;52.634;9.226;2023-09-18T14:47:10;24.80;1.00
13205;DHT22;6667;52.634;9.226;2023-09-18T14:49:36;24.70;1.00
13205;DHT22;6667;52.634;9.226;2023-09-18T14:52:04;24.70;1.00
13205;DHT22;6667;52.634;9.226;2023-09-18T14:54:32;24.60;1.00
13205;DHT22;6667;52.634;9.226;2023-09-18T14:56:59;24.70;1.00
13205;DHT22;6667;52.634;9.226;2023-09-18T14:59:26;24.60;1.00
13205;DHT22;6667;52.634;9.226;2023-09-18T15:01:53;24.70;1.00
13205;DHT22;6667;52.634;9.226;2023-09-18T15:04:20;24.60;1.00
13205;DHT22;6667;52.634;9.226;2023-09-18T15:06:47;24.50;1.00
13205;DHT22;6667;52.634;9.226;2023-09-18T15:09:15;24.40;1.00
13205;DHT22;6667;52.634;9.226;2023-09-18T15:11:44;24.50;1.00
13205;DHT22;6667;52.634;9.226;2023-09-18T15:14:10;24.40;1.00
13205;DHT22;6667;52.634;9.226;2023-09-18T15:16:37;24.30;1.00
13205;DHT22;6667;52.634;9.226;2023-09-18T15:19:04;24.30;1.00
13205;DHT22;6667;52.634;9.226;2023-09-18T15:21:32;24.30;1.00
13205;DHT22;6667;52.634;9.226;2023-09-18T15:23:58;24.30;1.00
13205;DHT22;6667;52.634;9.226;2023-09-18T15:26:25;24.10;1.00
13205;DHT22;6667;52.634;9.226;2023-09-18T15:28:53;24.10;1.00
13205;DHT22;6667;52.634;9.226;2023-09-18T15:31:20;24.10;1.00
13205;DHT22;6667;52.634;9.226;2023-09-18T15:33:47;24.00;1.00
13205;DHT22;6667;52.634;9.226;2023-09-18T15:36:13;24.00;1.00
13205;DHT22;6667;52.634;9.226;2023-09-18T15:38:40;23.90;1.00
13205;DHT22;6667;52.634;9.226;2023-09-18T15:41:07;23.90;1.00
13205;DHT22;6667;52.634;9.226;2023-09-18T15:43:34;23.80;1.00
13205;DHT22;6667;52.634;9.226;2023-09-18T15:46:03;23.80;1.00
13205;DHT22;6667;52.634;9.226;2023-09-18T15:48:30;23.80;1.00
13205;DHT22;6667;52.634;9.226;2023-09-18T15:50:56;23.70;1.00
13205;DHT22;6667;52.634;9.226;2023-09-18T15:53:23;23.70;1.00
13205;DHT22;6667;52.634;9.226;2023-09-18T15:55:50;23.70;1.00
13205;DHT22;6667;52.634;9.226;2023-09-18T15:58:17;23.60;1.00
13205;DHT22;6667;52.634;9.226;2023-09-18T16:00:45;23.60;1.00
13205;DHT22;6667;52.634;9.226;2023-09-18T16:03:13;23.60;1.00